Tiempo atmosférico en la estación meteorológica de Puertollano, Ciudad Real (700 m.)



Fecha
DESCASC
Temp. máxima en grados centígrados (hora)
DESCASC
Temp. mínima en grados centígrados (hora)
DESCASC
Temp. media en grados centígrados
DESCASC
Racha de viento máxima en m/sg (hora)
DESCASC
Velocidad máxima media en intervalos de 10 minutos(hora)
DESCASC
Precipitaciones diarias en mm
DESCASC
Precipitaciones de 00:00 a 06:00 en mm
DESCASC
Precipitaciones de 06:00 a 12:00 en mm
DESCASC
Precipitaciones de 12:00 a 18:00 en mm
DESCASC
Precipitaciones de 18:00 a 24:00 en mm
DESCASC
18-08-2019 36.9 (16:20) 20.1 (06:40) 28.5 9.44 (18:10) 5.56 (19:30) 0 0 0 0 0
17-08-2019 39.2 (17:40) 20.1 (08:00) 29.7 8.89 (15:50) 3.89 (14:50) 0 0 0 0 0
16-08-2019 38.3 (18:10) 20.6 (07:50) 29.4 8.33 (13:30) 3.89 (16:50) 0 0 0 0 0
15-08-2019 37.2 (16:30) 18.2 (00:00) 27.7 7.22 (16:10) 3.33 (14:10) 0 0 0 0 0
14-08-2019 35.8 (17:30) 16.5 (00:00) 26.1 7.5 (14:50) 3.61 (15:40) 0 0 0 0 0
13-08-2019 32.3 (17:50) 16.7 (00:00) 24.5 6.11 (00:40) 3.61 (14:40) 0 0 0 0 0
12-08-2019 29 (18:20) 14.7 (00:00) 21.8 8.61 (16:00) 3.61 (15:20) 0 0 0 0 0
11-08-2019 30.9 (17:40) 17.7 (00:00) 24.3 9.44 (14:40) 4.44 (20:10) 0 0 0 0 0
10-08-2019 35.2 (18:50) 19.2 (00:00) 27.2 10.56 (15:00) 3.61 (20:40) 0 0 0 0 0
09-08-2019 34.7 (16:40) 20.8 (00:00) 27.8 8.61 (13:20) 4.17 (18:30) 0 0 0 0 0
08-08-2019 37.4 (18:10) 19 (00:00) 28.2 9.17 (17:20) 4.17 (17:20) 0 0 0 0 0
07-08-2019 31.5 (14:20) 21.3 (00:00) 26.4 8.33 (12:40) 3.89 (15:00) 0 0 0 0 0
06-08-2019 37.9 (17:30) 19.4 (00:00) 28.7 13.06 (14:40) 5 (16:10) 0 0 0 0 0
05-08-2019 37.6 (17:50) 20.5 (00:00) 29 8.33 (20:20) 4.17 (20:20) 0 0 0 0 0
04-08-2019 37.4 (16:30) 18.9 (00:00) 28.2 8.33 (16:10) 3.89 (16:10) 0 0 0 0 0
03-08-2019 38.4 (17:10) 18.6 (00:00) 28.5 8.06 (14:40) 4.44 (16:00) 0 0 0 0 0
02-08-2019 37.1 (17:40) 18.8 (00:00) 27.9 7.22 (18:00) 3.61 (18:00) 0 0 0 0 0
01-08-2019 35.8 (17:20) 22.2 (00:00) 29 7.5 (16:50) 4.17 (22:00) 0 0 0 0 0
31-07-2019 37.9 (17:10) 17.2 (00:00) 27.6 8.33 (18:00) 4.17 (16:10) 0 0 0 0 0
30-07-2019 34.5 (18:00) 17.3 (00:00) 25.9 6.11 (17:30) 3.33 (17:20) 0 0 0 0 0
29-07-2019 34 (18:10) 19.5 (00:00) 26.8 8.61 (15:10) 4.72 (21:00) 0 0 0 0 0
28-07-2019 32.2 (18:00) 17.3 (00:00) 24.8 5.83 (19:40) 2.78 (15:30) 0 0 0 0 0
27-07-2019 26.5 (17:40) 15.6 (00:00) 21.1 11.39 (15:40) 5.28 (15:40) 0 0 0 0 0
26-07-2019 31.7 (16:20) 22 (00:00) 26.9 10.83 (18:20) 5 (18:10) 0 0 0 0 0
25-07-2019 38.1 (18:10) 23.4 (00:00) 30.7 8.89 (14:50) 4.44 (19:10) 0 0 0 0 0
24-07-2019 39 (18:10) 23.8 (00:00) 31.4 10 (00:10) 5.28 (00:10) 0 0 0 0 0
23-07-2019 39.6 (16:40) 24.6 (00:00) 32.1 8.89 (16:30) 5 (17:40) 0 0 0 0 0
22-07-2019 40 (17:50) 26.5 (00:00) 33.3 7.5 (14:30) 4.17 (18:40) 0 0 0 0 0
21-07-2019 39.9 (18:10) 23.6 (00:00) 31.8 11.11 (19:00) 5.83 (19:00) 0 0 0 0 0

Gráficas

Temp. máximas Temp. mínimas Temp. medias Precipitaciones Rachas de viento máximas Velocidades máximas media en intervalos de 10 minutos

Datos horarios

Fecha y hora oficial Temperatura (ºC) Velocidad del viento (km/h) Dirección del viento Racha (km/h) Dirección de racha Precipitación (mm) Presión (hPa) Tendencia (hPa) Humedad (%)
2019-08-19 23:00:00 27.7 5 Oeste 14 Noroeste 0 -- -- 30
2019-08-19 22:00:00 29.3 7 Noroeste 23 Noroeste 0 -- -- 32
2019-08-19 21:00:00 31.9 6 Oeste 18 Noroeste 0 -- -- 30
2019-08-19 20:00:00 34 8 Oeste 25 Oeste 0 -- -- 28
2019-08-19 19:00:00 34.4 10 Noroeste 27 Oeste 0 -- -- 28
2019-08-19 18:00:00 34.4 13 Noroeste 30 Oeste 0 -- -- 26
2019-08-19 17:00:00 35 10 Oeste 27 Sudoeste 0 -- -- 25
2019-08-19 16:00:00 34.7 12 Oeste 28 Sudoeste 0 -- -- 26
2019-08-19 15:00:00 34.5 10 Sudoeste 24 Sudoeste 0 -- -- 26
2019-08-19 14:00:00 33.4 13 Sur 24 Sur 0 -- -- 26
2019-08-19 13:00:00 31.8 8 Sudoeste 22 Oeste 0 -- -- 31
2019-08-19 12:00:00 30.2 11 Sudoeste 22 Sudoeste 0 -- -- 34
2019-08-19 11:00:00 27.5 5 Sudoeste 10 Sudoeste 0 -- -- 44
2019-08-19 10:00:00 24.1 6 Noroeste 9 Noroeste 0 -- -- 57
2019-08-19 09:00:00 20.9 3 Noroeste 8 Noroeste 0 -- -- 66
2019-08-19 08:00:00 19.3 4 Oeste 8 Noroeste 0 -- -- 63
2019-08-19 07:00:00 20.1 0 Calma 6 Noroeste 0 -- -- 58
2019-08-19 06:00:00 22 4 Noroeste 7 Noroeste 0 -- -- 55
2019-08-19 05:00:00 22.6 4 Noroeste 7 Norte 0 -- -- 52
2019-08-19 04:00:00 22.7 0 Calma 7 Oeste 0 -- -- 48
2019-08-19 03:00:00 23.5 4 Noroeste 13 Sudoeste 0 -- -- 48
2019-08-19 02:00:00 24 4 Oeste 12 Oeste 0 -- -- 37
2019-08-19 01:00:00 24.9 5 Noroeste 9 Noroeste 0 -- -- 27
2019-08-19 00:00:00 25.6 3 Norte 6 Norte 0 -- -- 26
2019-08-18 23:00:00 27.5 3 Oeste 9 Oeste 0 -- -- 23
2019-08-18 22:00:00 29.4 4 Oeste 16 Noroeste 0 -- -- 22
2019-08-18 21:00:00 31.1 12 Noroeste 30 Oeste 0 -- -- 23
2019-08-18 20:00:00 32.3 17 Noroeste 33 Noroeste 0 -- -- 23
2019-08-18 19:00:00 35 17 Noroeste 34 Oeste 0 -- -- 23
2019-08-18 18:00:00 36.6 12 Oeste 32 Oeste 0 -- -- 21
2019-08-18 17:00:00 36.7 15 Oeste 28 Noroeste 0 -- -- 22
2019-08-18 16:00:00 36.7 12 Oeste 25 Sudoeste 0 -- -- 22
2019-08-18 15:00:00 35.7 12 Oeste 26 Sudoeste 0 -- -- 23
2019-08-18 14:00:00 35.2 11 Oeste 33 Sudoeste 0 -- -- 23
2019-08-18 13:00:00 33.8 9 Oeste 22 Noroeste 0 -- -- 23
2019-08-18 12:00:00 31.9 5 Norte 14 Noroeste 0 -- -- 25
2019-08-18 11:00:00 29.9 5 Noroeste 14 Noroeste 0 -- -- 28
2019-08-18 10:00:00 26.5 0 Calma 8 Norte 0 -- -- 30
2019-08-18 09:00:00 22.9 3 Noroeste 9 Noroeste 0 -- -- 33
2019-08-18 08:00:00 20.9 3 Noroeste 6 Noroeste 0 -- -- 35
2019-08-18 07:00:00 20.6 5 Noroeste 10 Sudoeste 0 -- -- 38
2019-08-18 06:00:00 21.4 0 Calma 7 Sudoeste 0 -- -- 37
2019-08-18 05:00:00 22.2 4 Noroeste 8 Sudoeste 0 -- -- 39
2019-08-18 04:00:00 24.3 0 Calma 6 Oeste 0 -- -- 36
2019-08-18 03:00:00 25.6 4 Noroeste 8 Noroeste 0 -- -- 34
2019-08-18 02:00:00 26 4 Oeste 11 Oeste 0 -- -- 35
2019-08-18 01:00:00 27.3 5 Noroeste 8 Noroeste 0 -- -- 32
2019-08-18 00:00:00 28.5 4 Noroeste 12 Oeste 0 -- -- 28
2019-08-17 23:00:00 30.5 4 Oeste 8 Oeste 0 -- -- 23
2019-08-17 22:00:00 32 4 Noroeste 12 Sudoeste 0 -- -- 22
2019-08-17 21:00:00 35.1 8 Sudoeste 21 Sudoeste 0 -- -- 20
2019-08-17 20:00:00 37.4 9 Sudoeste 21 Sudoeste 0 -- -- 18
2019-08-17 19:00:00 38.8 10 Sudoeste 26 Sudoeste 0 -- -- 18
2019-08-17 18:00:00 38.2 5 Norte 30 Sudoeste 0 -- -- 18
2019-08-17 17:00:00 38.7 11 Sudoeste 27 Oeste 0 -- -- 19
2019-08-17 16:00:00 38.3 12 Oeste 32 Sudoeste 0 -- -- 20
2019-08-17 15:00:00 37.8 12 Sudoeste 28 Sur 0 -- -- 22
2019-08-17 14:00:00 36.4 13 Sudoeste 26 Sudoeste 0 -- -- 25
2019-08-17 13:00:00 35.2 9 Sudoeste 21 Sudoeste 0 -- -- 26
2019-08-17 12:00:00 33.6 7 Sur 17 Sudeste 0 -- -- 29
2019-08-17 11:00:00 31.2 4 Sudeste 9 Sur 0 -- -- 32
2019-08-17 10:00:00 26.9 3 Noroeste 5 Oeste 0 -- -- 37
2019-08-17 09:00:00 22.7 0 Calma 5 Sudoeste 0 -- -- 42
2019-08-17 08:00:00 20.1 4 Noroeste 7 Sudoeste 0 -- -- 43
2019-08-17 07:00:00 21.2 0 Calma 4 Sudoeste 0 -- -- 41
2019-08-17 06:00:00 23.5 0 Calma 5 Noroeste 0 -- -- 39
2019-08-17 05:00:00 23.7 0 Calma 6 Noroeste 0 -- -- 38
2019-08-17 04:00:00 24.6 4 Oeste 7 Oeste 0 -- -- 36
2019-08-17 03:00:00 25.5 4 Noroeste 9 Noroeste 0 -- -- 35
2019-08-17 02:00:00 27.2 3 Noroeste 6 Sudoeste 0 -- -- 33
2019-08-17 01:00:00 28.2 3 Oeste 5 Noroeste 0 -- -- 32
2019-08-17 00:00:00 29.3 4 Noroeste 8 Noroeste 0 -- -- 30
2019-08-16 23:00:00 31.5 4 Noroeste 13 Oeste 0 -- -- 27
2019-08-16 22:00:00 32.7 6 Sudoeste 14 Sudoeste 0 -- -- 28
2019-08-16 21:00:00 34.9 4 Oeste 18 Oeste 0 -- -- 22
2019-08-16 20:00:00 36.6 10 Oeste 26 Noroeste 0 -- -- 21
2019-08-16 19:00:00 37.3 9 Oeste 27 Sudoeste 0 -- -- 23
2019-08-16 18:00:00 38 11 Sudoeste 24 Oeste 0 -- -- 22
2019-08-16 17:00:00 38.1 12 Sudoeste 28 Sudoeste 0 -- -- 22
2019-08-16 16:00:00 37.2 6 Oeste 27 Sudoeste 0 -- -- 23
2019-08-16 15:00:00 36.1 9 Noroeste 24 Oeste 0 -- -- 24
2019-08-16 14:00:00 36.3 11 Sudoeste 30 Sudoeste 0 -- -- 25
2019-08-16 13:00:00 35.1 8 Sudoeste 24 Sudoeste 0 -- -- 26
2019-08-16 12:00:00 33.7 7 Sudoeste 17 Sudoeste 0 -- -- 27
2019-08-16 11:00:00 31.2 5 Este 15 Este 0 -- -- 33
2019-08-16 10:00:00 27.7 6 Este 12 Este 0 -- -- 36
2019-08-16 09:00:00 22.8 2 Sudoeste 5 Sudoeste 0 -- -- 44
2019-08-16 08:00:00 20.7 2 Noroeste 6 Sudoeste 0 -- -- 47
2019-08-16 07:00:00 21.3 3 Sudoeste 6 Sudoeste 0 -- -- 45
2019-08-16 06:00:00 22.6 3 Sudoeste 6 Sudoeste 0 -- -- 43
2019-08-16 05:00:00 24.3 0 Calma 6 Noroeste 0 -- -- 41
2019-08-16 04:00:00 25 5 Noroeste 8 Noroeste 0 -- -- 39
2019-08-16 03:00:00 25.6 3 Noroeste 7 Noroeste 0 -- -- 37
2019-08-16 02:00:00 26.2 4 Noroeste 6 Noroeste 0 -- -- 36
2019-08-16 01:00:00 27 4 Noroeste 7 Noroeste 0 -- -- 35
2019-08-16 00:00:00 27.6 5 Noroeste 9 Oeste 0 -- -- 32
2019-08-15 23:00:00 29.7 3 Sudoeste 13 Sudoeste 0 -- -- 29
2019-08-15 22:00:00 31.4 5 Oeste 13 Noroeste 0 -- -- 26
2019-08-15 21:00:00 34.2 5 Oeste 15 Oeste 0 -- -- 22
2019-08-15 20:00:00 36.2 7 Oeste 21 Noroeste 0 -- -- 19
2019-08-15 19:00:00 36.5 8 Noroeste 20 Oeste 0 -- -- 18
2019-08-15 18:00:00 36.8 6 Oeste 23 Oeste 0 -- -- 18
2019-08-15 17:00:00 36.8 9 Noroeste 26 Oeste 0 -- -- 18
2019-08-15 16:00:00 36 9 Oeste 23 Oeste 0 -- -- 18
2019-08-15 15:00:00 35.7 9 Noroeste 23 Sudoeste 0 -- -- 18
2019-08-15 14:00:00 34.6 5 Este 18 Noroeste 0 -- -- 19
2019-08-15 13:00:00 33.3 5 Noroeste 15 Noroeste 0 -- -- 21
2019-08-15 12:00:00 31.4 6 Noroeste 16 Oeste 0 -- -- 23
2019-08-15 11:00:00 29 4 Noroeste 8 Noroeste 0 -- -- 26
2019-08-15 10:00:00 23.9 3 Sudoeste 5 Sudoeste 0 -- -- 35
2019-08-15 09:00:00 19.9 2 Oeste 5 Noroeste 0 -- -- 39
2019-08-15 08:00:00 18.2 3 Sudoeste 5 Oeste 0 -- -- 40
2019-08-15 07:00:00 18.9 4 Noroeste 6 Noroeste 0 -- -- 38
2019-08-15 06:00:00 19.4 4 Noroeste 8 Noroeste 0 -- -- 37
2019-08-15 05:00:00 20.4 4 Oeste 6 Oeste 0 -- -- 36
2019-08-15 04:00:00 21.1 0 Calma 8 Sudoeste 0 -- -- 33
2019-08-15 03:00:00 23 3 Oeste 7 Noroeste 0 -- -- 32
2019-08-15 02:00:00 24 3 Noroeste 9 Noroeste 0 -- -- 28
2019-08-15 01:00:00 25.3 5 Noroeste 7 Noroeste 0 -- -- 27
2019-08-15 00:00:00 26.5 4 Noroeste 9 Sudoeste 0 -- -- 27
2019-08-14 23:00:00 28 6 Sudoeste 12 Oeste 0 -- -- 23
2019-08-14 22:00:00 29.8 5 Oeste 13 Noroeste 0 -- -- 22
2019-08-14 21:00:00 32.2 5 Oeste 14 Noroeste 0 -- -- 19
2019-08-14 20:00:00 34.4 8 Noroeste 20 Oeste 0 -- -- 17
2019-08-14 19:00:00 35.2 7 Oeste 19 Sudoeste 0 -- -- 17
2019-08-14 18:00:00 35.3 9 Sudoeste 24 Noroeste 0 -- -- 17
2019-08-14 17:00:00 34.8 10 Oeste 21 Sudoeste 0 -- -- 17
2019-08-14 16:00:00 35.1 9 Oeste 26 Oeste 0 -- -- 17
2019-08-14 15:00:00 33.9 12 Oeste 27 Oeste 0 -- -- 18
2019-08-14 14:00:00 33.2 11 Sudoeste 23 Sudoeste 0 -- -- 19
2019-08-14 13:00:00 31 5 Noroeste 15 Noroeste 0 -- -- 23
2019-08-14 12:00:00 29.5 5 Nordeste 14 Sudoeste 0 -- -- 26
2019-08-14 11:00:00 26.5 4 Sudeste 10 Sur 0 -- -- 31
2019-08-14 10:00:00 22.8 5 Sudoeste 8 Sudoeste 0 -- -- 34
2019-08-14 09:00:00 19.1 2 Sudoeste 7 Sudoeste 0 -- -- 39
2019-08-14 08:00:00 16.6 3 Oeste 8 Sudoeste 0 -- -- 42
2019-08-14 07:00:00 16.8 3 Noroeste 10 Sudoeste 0 -- -- 41
2019-08-14 06:00:00 17.9 2 Noroeste 7 Sudoeste 0 -- -- 39
2019-08-14 05:00:00 18.8 4 Noroeste 10 Noroeste 0 -- -- 36
2019-08-14 04:00:00 20.2 3 Oeste 10 Norte 0 -- -- 36
2019-08-14 03:00:00 24.4 5 Este 13 Este 0 -- -- 30
2019-08-14 02:00:00 25.1 4 Sur 17 Sudeste 0 -- -- 29
2019-08-14 01:00:00 26.2 5 Sudeste 20 Este 0 -- -- 28
2019-08-14 00:00:00 26 8 Nordeste 18 Norte 0 -- -- 26
2019-08-13 23:00:00 25.4 3 Noroeste 10 Oeste 0 -- -- 24
2019-08-13 22:00:00 28.3 3 Oeste 13 Noroeste 0 -- -- 22
2019-08-13 21:00:00 30.1 8 Noroeste 18 Noroeste 0 -- -- 21
2019-08-13 20:00:00 31.6 9 Norte 21 Noroeste 0 -- -- 20
2019-08-13 19:00:00 32.3 7 Noroeste 20 Noroeste 0 -- -- 19
2019-08-13 18:00:00 32.1 9 Noroeste 21 Noroeste 0 -- -- 19
2019-08-13 17:00:00 32.1 6 Noroeste 21 Noroeste 0 -- -- 20
2019-08-13 16:00:00 31.3 6 Norte 19 Oeste 0 -- -- 21
2019-08-13 15:00:00 30.5 7 Noroeste 22 Oeste 0 -- -- 21
2019-08-13 14:00:00 29.6 4 Sudoeste 22 Norte 0 -- -- 23
2019-08-13 13:00:00 28.2 8 Norte 19 Norte 0 -- -- 31
2019-08-13 12:00:00 26.2 5 Oeste 14 Oeste 0 -- -- 44
2019-08-13 11:00:00 24.3 5 Sudoeste 13 Sudoeste 0 -- -- 50
2019-08-13 10:00:00 21.6 4 Sudoeste 9 Oeste 0 -- -- 55
2019-08-13 09:00:00 18.4 3 Sudoeste 6 Sudoeste 0 -- -- 48
2019-08-13 08:00:00 16.7 2 Sudoeste 6 Sudoeste 0 -- -- 35
2019-08-13 07:00:00 17.5 4 Sudoeste 12 Sudoeste 0 -- -- 34
2019-08-13 06:00:00 18.7 3 Noroeste 10 Norte 0 -- -- 31
2019-08-13 05:00:00 21.1 5 Norte 16 Sudeste 0 -- -- 28
2019-08-13 04:00:00 21.9 6 Sudeste 14 Sur 0 -- -- 27
2019-08-13 03:00:00 22.2 2 Sudoeste 13 Este 0 -- -- 25
2019-08-13 02:00:00 23.3 4 Este 16 Norte 0 -- -- 23
2019-08-13 01:00:00 24.6 8 Este 22 Este 0 -- -- 21
2019-08-13 00:00:00 24.7 8 Nordeste 20 Nordeste 0 -- -- 20
2019-08-12 23:00:00 24.9 7 Nordeste 16 Nordeste 0 -- -- 21
2019-08-12 22:00:00 25.7 10 Nordeste 19 Norte 0 -- -- 22
2019-08-12 21:00:00 26.9 10 Norte 18 Nordeste 0 -- -- 25
2019-08-12 20:00:00 28.1 9 Norte 23 Noroeste 0 -- -- 22
2019-08-12 19:00:00 28.6 10 Norte 25 Norte 0 -- -- 21
2019-08-12 18:00:00 28.7 11 Norte 26 Noroeste 0 -- -- 22
2019-08-12 17:00:00 28.4 13 Nordeste 25 Noroeste 0 -- -- 22
2019-08-12 16:00:00 28.1 12 Nordeste 31 Nordeste 0 -- -- 23
2019-08-12 15:00:00 27.1 13 Norte 26 Nordeste 0 -- -- 24
2019-08-12 14:00:00 26.2 9 Norte 26 Este 0 -- -- 25
2019-08-12 13:00:00 25.5 9 Nordeste 27 Sudeste 0 -- -- 30
2019-08-12 12:00:00 24.4 8 Este 25 Nordeste 0 -- -- 33
2019-08-12 11:00:00 22.3 10 Norte 22 Nordeste 0 -- -- 35
2019-08-12 10:00:00 20.8 9 Nordeste 24 Nordeste 0 -- -- 38
2019-08-12 09:00:00 16.6 6 Noroeste 9 Sudoeste 0 -- -- 44
2019-08-12 08:00:00 15 3 Oeste 10 Oeste 0 -- -- 44
2019-08-12 07:00:00 15.8 5 Sudoeste 11 Sudoeste 0 -- -- 43
2019-08-12 06:00:00 16.5 5 Oeste 13 Oeste 0 -- -- 42
2019-08-12 05:00:00 17.4 5 Oeste 9 Noroeste 0 -- -- 39
2019-08-12 04:00:00 19.3 4 Oeste 8 Oeste 0 -- -- 35
2019-08-12 03:00:00 19.8 2 Sudoeste 10 Sudoeste 0 -- -- 34
2019-08-12 02:00:00 20.1 4 Oeste 14 Oeste 0 -- -- 32
2019-08-12 01:00:00 20.3 6 Oeste 16 Oeste 0 -- -- 33
2019-08-12 00:00:00 20.8 6 Oeste 15 Oeste 0 -- -- 32
2019-08-11 23:00:00 22.4 8 Oeste 26 Noroeste 0 -- -- 30
2019-08-11 22:00:00 23.8 14 Noroeste 26 Noroeste 0 -- -- 30
2019-08-11 21:00:00 25.7 9 Oeste 29 Noroeste 0 -- -- 25
2019-08-11 20:00:00 27.2 14 Noroeste 30 Noroeste 0 -- -- 22
2019-08-11 19:00:00 29.8 13 Oeste 26 Noroeste 0 -- -- 23
2019-08-11 18:00:00 30.1 12 Oeste 31 Oeste 0 -- -- 21
2019-08-11 17:00:00 30.7 9 Sudoeste 27 Oeste 0 -- -- 24
2019-08-11 16:00:00 30.5 14 Oeste 30 Oeste 0 -- -- 26
2019-08-11 15:00:00 30.3 12 Sudoeste 34 Oeste 0 -- -- 21
2019-08-11 14:00:00 29.4 11 Sudoeste 24 Noroeste 0 -- -- 22
2019-08-11 13:00:00 27.7 9 Oeste 24 Oeste 0 -- -- 21
2019-08-11 12:00:00 25.7 9 Oeste 23 Oeste 0 -- -- 34
2019-08-11 11:00:00 23.8 9 Noroeste 18 Oeste 0 -- -- 46
2019-08-11 10:00:00 22 6 Noroeste 13 Noroeste 0 -- -- 50
2019-08-11 09:00:00 19.5 4 Sudeste 8 Este 0 -- -- 60
2019-08-11 08:00:00 18 5 Norte 9 Noroeste 0 -- -- 63
2019-08-11 07:00:00 17.9 3 Noroeste 17 Oeste 0 -- -- 60
2019-08-11 06:00:00 19.5 8 Oeste 17 Sudoeste 0 -- -- 55
2019-08-11 05:00:00 20.3 5 Oeste 15 Oeste 0 -- -- 46
2019-08-11 04:00:00 20.6 5 Noroeste 16 Oeste 0 -- -- 42
2019-08-11 03:00:00 21.8 4 Noroeste 12 Oeste 0 -- -- 40
2019-08-11 02:00:00 23.1 5 Oeste 13 Noroeste 0 -- -- 40
2019-08-11 01:00:00 24.7 6 Oeste 12 Sudoeste 0 -- -- 38
2019-08-11 00:00:00 26 5 Oeste 13 Oeste 0 -- -- 36
2019-08-10 23:00:00 27.7 5 Oeste 19 Noroeste 0 -- -- 34
2019-08-10 22:00:00 29.3 5 Noroeste 18 Oeste 0 -- -- 35
2019-08-10 21:00:00 31.3 6 Oeste 22 Oeste 0 -- -- 34
2019-08-10 20:00:00 33.3 12 Noroeste 22 Oeste 0 -- -- 33
2019-08-10 19:00:00 34.8 9 Noroeste 24 Oeste 0 -- -- 32
2019-08-10 18:00:00 34.7 10 Sudoeste 26 Oeste 0 -- -- 32
2019-08-10 17:00:00 34.8 9 Oeste 26 Sudoeste 0 -- -- 32
2019-08-10 16:00:00 33.9 10 Sudoeste 26 Sudoeste 0 -- -- 34
2019-08-10 15:00:00 33 12 Oeste 38 Oeste 0 -- -- 36
2019-08-10 14:00:00 31.3 12 Sudoeste 32 Sudoeste 0 -- -- 42
2019-08-10 13:00:00 28.8 5 Sudeste 18 Noroeste 0 -- -- 47
2019-08-10 12:00:00 26.4 4 Norte 16 Oeste 0 -- -- 53
2019-08-10 11:00:00 25 5 Noroeste 14 Noroeste 0 -- -- 57
2019-08-10 10:00:00 22.9 6 Oeste 13 Noroeste 0 -- -- 60
2019-08-10 09:00:00 21 3 Noroeste 9 Noroeste 0 -- -- 69
2019-08-10 08:00:00 19.3 3 Noroeste 8 Noroeste 0 -- -- 79
2019-08-10 07:00:00 19.8 2 Oeste 10 Oeste 0 -- -- 77
2019-08-10 06:00:00 20.6 4 Oeste 10 Sudoeste 0 -- -- 75
2019-08-10 05:00:00 20.4 4 Noroeste 12 Oeste 0 -- -- 75
2019-08-10 04:00:00 21.8 4 Oeste 13 Oeste 0 -- -- 71
2019-08-10 03:00:00 22.7 6 Oeste 12 Oeste 0 -- -- 70
2019-08-10 02:00:00 23.4 4 Oeste 12 Oeste 0 -- -- 70
2019-08-10 01:00:00 24.8 6 Oeste 15 Oeste 0 -- -- 64
2019-08-10 00:00:00 25.8 8 Noroeste 20 Noroeste 0 -- -- 63
2019-08-09 23:00:00 27 9 Noroeste 25 Noroeste 0 -- -- 60
2019-08-09 22:00:00 29 13 Noroeste 26 Noroeste 0 -- -- 52
2019-08-09 21:00:00 31.6 11 Noroeste 22 Noroeste 0 -- -- 39
2019-08-09 20:00:00 33.6 11 Noroeste 23 Oeste 0 -- -- 34
2019-08-09 19:00:00 34.6 9 Oeste 28 Oeste 0 -- -- 34
2019-08-09 18:00:00 34.7 10 Oeste 29 Oeste 0 -- -- 34
2019-08-09 17:00:00 34.5 11 Oeste 27 Oeste 0 -- -- 34
2019-08-09 16:00:00 34 13 Oeste 30 Oeste 0 -- -- 34
2019-08-09 15:00:00 33.2 9 Oeste 27 Oeste 0 -- -- 36
2019-08-09 14:00:00 32.3 11 Oeste 31 Oeste 0 -- -- 38
2019-08-09 13:00:00 31.1 11 Oeste 27 Noroeste 0 -- -- 39
2019-08-09 12:00:00 29.6 12 Oeste 25 Sudoeste 0 -- -- 44
2019-08-09 11:00:00 27.6 10 Sudoeste 18 Sudoeste 0 -- -- 51
2019-08-09 10:00:00 25.2 6 Sudoeste 12 Sudoeste 0 -- -- 60
2019-08-09 09:00:00 22.4 4 Noroeste 9 Noroeste 0 -- -- 68
2019-08-09 08:00:00 21 3 Noroeste 10 Noroeste 0 -- -- 72
2019-08-09 07:00:00 21.5 5 Noroeste 10 Noroeste 0 -- -- 67
2019-08-09 06:00:00 22.1 5 Oeste 10 Oeste 0 -- -- 64
2019-08-09 05:00:00 22.8 4 Noroeste 12 Oeste 0 -- -- 59
2019-08-09 04:00:00 24 4 Noroeste 12 Oeste 0 -- -- 55
2019-08-09 03:00:00 25.3 4 Oeste 10 Noroeste 0 -- -- 51
2019-08-09 02:00:00 25.2 3 Norte 15 Sudoeste 0 -- -- 33
2019-08-09 01:00:00 26.1 5 Oeste 11 Sudoeste 0 -- -- 27
2019-08-09 00:00:00 28.7 5 Noroeste 19 Oeste 0 -- -- 24
2019-08-08 23:00:00 29.5 8 Noroeste 18 Sur 0 -- -- 25
2019-08-08 22:00:00 31.3 6 Sudoeste 21 Sudoeste 0 -- -- 21
2019-08-08 21:00:00 34.2 9 Sudoeste 24 Sudoeste 0 -- -- 22
2019-08-08 20:00:00 36.2 12 Sudoeste 26 Sudoeste 0 -- -- 24
2019-08-08 19:00:00 37.2 13 Sudoeste 29 Sudoeste 0 -- -- 24
2019-08-08 18:00:00 37.1 10 Sudoeste 33 Sudoeste 0 -- -- 23
2019-08-08 17:00:00 36.1 8 Oeste 24 Oeste 0 -- -- 25
2019-08-08 16:00:00 35.8 7 Sur 22 Sudoeste 0 -- -- 27
2019-08-08 15:00:00 34.8 12 Sudoeste 22 Sudoeste 0 -- -- 29
2019-08-08 14:00:00 32.6 12 Oeste 22 Sudoeste 0 -- -- 32
2019-08-08 13:00:00 31.1 7 Sudoeste 17 Sudoeste 0 -- -- 31
2019-08-08 12:00:00 29.6 7 Sudoeste 15 Sudoeste 0 -- -- 36
2019-08-08 11:00:00 26.7 4 Sudoeste 9 Oeste 0 -- -- 42
2019-08-08 10:00:00 24 4 Oeste 10 Oeste 0 -- -- 52
2019-08-08 09:00:00 20.8 0 Calma 6 Sudoeste 0 -- -- 59
2019-08-08 08:00:00 19.1 4 Oeste 6 Sudoeste 0 -- -- 61
2019-08-08 07:00:00 19.7 4 Noroeste 7 Noroeste 0 -- -- 60
2019-08-08 06:00:00 20 4 Oeste 8 Oeste 0 -- -- 60
2019-08-08 05:00:00 20.5 3 Oeste 8 Noroeste 0 -- -- 58
2019-08-08 04:00:00 20.9 2 Oeste 7 Noroeste 0 -- -- 57
2019-08-08 03:00:00 21.8 2 Oeste 7 Noroeste 0 -- -- 53
2019-08-08 02:00:00 22.2 4 Norte 8 Sudoeste 0 -- -- 53
2019-08-08 01:00:00 22.6 4 Noroeste 11 Sudoeste 0 -- -- 51
2019-08-08 00:00:00 23.8 4 Oeste 11 Oeste 0 -- -- 49
2019-08-07 23:00:00 24.8 3 Oeste 11 Oeste 0 -- -- 46
2019-08-07 22:00:00 26.4 6 Noroeste 16 Oeste 0 -- -- 43
2019-08-07 21:00:00 27.5 5 Oeste 13 Oeste 0 -- -- 38
2019-08-07 20:00:00 28 8 Noroeste 27 Noroeste 0 -- -- 35
2019-08-07 19:00:00 29.2 11 Noroeste 20 Noroeste 0 -- -- 33
2019-08-07 18:00:00 29.7 8 Noroeste 28 Noroeste 0 -- -- 32
2019-08-07 17:00:00 30.7 5 Oeste 26 Sudoeste 0 -- -- 29
2019-08-07 16:00:00 30.8 5 Oeste 27 Noroeste 0 -- -- 31
2019-08-07 15:00:00 30.6 14 Noroeste 28 Sudoeste 0 -- -- 31
2019-08-07 14:00:00 30.6 13 Oeste 28 Oeste 0 -- -- 30
2019-08-07 13:00:00 29.9 11 Oeste 30 Noroeste 0 -- -- 31
2019-08-07 12:00:00 29.3 9 Oeste 26 Sudoeste 0 -- -- 33
2019-08-07 11:00:00 28.1 10 Oeste 23 Oeste 0 -- -- 37
2019-08-07 10:00:00 25.6 6 Oeste 15 Noroeste 0 -- -- 45
2019-08-07 09:00:00 22.6 5 Noroeste 10 Noroeste 0 -- -- 58
2019-08-07 08:00:00 21.4 5 Noroeste 10 Oeste 0 -- -- 60
2019-08-07 07:00:00 21.8 5 Noroeste 9 Oeste 0 -- -- 58
2019-08-07 06:00:00 22.6 5 Noroeste 12 Oeste 0 -- -- 56
2019-08-07 05:00:00 22.9 4 Norte 11 Norte 0 -- -- 53
2019-08-07 04:00:00 22.9 5 Noroeste 12 Oeste 0 -- -- 48
2019-08-07 03:00:00 24 6 Noroeste 11 Oeste 0 -- -- 42
2019-08-07 02:00:00 24.8 5 Noroeste 9 Noroeste 0 -- -- 39
2019-08-07 01:00:00 26 5 Noroeste 8 Noroeste 0 -- -- 37
2019-08-07 00:00:00 27.3 5 Sudoeste 12 Oeste 0 -- -- 34
2019-08-06 23:00:00 30 5 Oeste 19 Sudoeste 0 -- -- 27
2019-08-06 22:00:00 31.3 6 Oeste 22 Sudoeste 0 -- -- 19
2019-08-06 21:00:00 34.4 7 Sudoeste 21 Oeste 0 -- -- 17
2019-08-06 20:00:00 36.1 10 Sudoeste 26 Sudoeste 0 -- -- 17
2019-08-06 19:00:00 37.6 13 Sudoeste 31 Sudoeste 0 -- -- 17
2019-08-06 18:00:00 37.8 15 Sudoeste 32 Sudoeste 0 -- -- 16
2019-08-06 17:00:00 37.4 9 Sudoeste 30 Sur 0 -- -- 16
2019-08-06 16:00:00 37 12 Sudoeste 32 Noroeste 0 -- -- 18
2019-08-06 15:00:00 36.4 10 Sudoeste 47 Sudoeste 0 -- -- 18
2019-08-06 14:00:00 35.3 13 Sudoeste 27 Sur 0 -- -- 18
2019-08-06 13:00:00 33.3 8 Sur 28 Sudoeste 0 -- -- 22
2019-08-06 12:00:00 31.6 9 Sudoeste 23 Sudoeste 0 -- -- 23
2019-08-06 11:00:00 29.5 5 Sudoeste 11 Oeste 0 -- -- 29
2019-08-06 10:00:00 25.8 4 Noroeste 8 Noroeste 0 -- -- 35
2019-08-06 09:00:00 22 3 Sudoeste 6 Noroeste 0 -- -- 39
2019-08-06 08:00:00 19.4 4 Noroeste 6 Noroeste 0 -- -- 41
2019-08-06 07:00:00 21.3 3 Sur 6 Noroeste 0 -- -- 38
2019-08-06 06:00:00 22.7 4 Noroeste 7 Noroeste 0 -- -- 38
2019-08-06 05:00:00 22.6 4 Noroeste 8 Noroeste 0 -- -- 34
2019-08-06 04:00:00 22.9 4 Oeste 9 Noroeste 0 -- -- 32
2019-08-06 03:00:00 24.5 3 Noroeste 7 Noroeste 0 -- -- 30
2019-08-06 02:00:00 24.8 3 Norte 11 Noroeste 0 -- -- 33
2019-08-06 01:00:00 25.6 6 Noroeste 12 Noroeste 0 -- -- 29
2019-08-06 00:00:00 27.8 4 Noroeste 12 Oeste 0 -- -- 25
2019-08-05 23:00:00 29.4 3 Noroeste 9 Oeste 0 -- -- 25
2019-08-05 22:00:00 31.8 4 Sudoeste 17 Noroeste 0 -- -- 23
2019-08-05 21:00:00 34.1 7 Noroeste 30 Noroeste 0 -- -- 21
2019-08-05 20:00:00 35.8 10 Noroeste 23 Oeste 0 -- -- 21
2019-08-05 19:00:00 37 8 Oeste 22 Sudoeste 0 -- -- 21
2019-08-05 18:00:00 37.5 8 Oeste 27 Oeste 0 -- -- 21
2019-08-05 17:00:00 37.2 11 Oeste 25 Sudoeste 0 -- -- 22
2019-08-05 16:00:00 36 9 Noroeste 18 Sudeste 0 -- -- 22
2019-08-05 15:00:00 35.7 10 Oeste 21 Sudoeste 0 -- -- 23
2019-08-05 14:00:00 34.5 7 Sudoeste 19 Noroeste 0 -- -- 23
2019-08-05 13:00:00 33.7 8 Sudoeste 23 Sudoeste 0 -- -- 23
2019-08-05 12:00:00 31.5 5 Sudoeste 10 Sudoeste 0 -- -- 29
2019-08-05 11:00:00 28.8 4 Oeste 11 Oeste 0 -- -- 36
2019-08-05 10:00:00 26.1 6 Noroeste 10 Oeste 0 -- -- 41
2019-08-05 09:00:00 22.5 4 Oeste 10 Oeste 0 -- -- 50
2019-08-05 08:00:00 20.8 4 Oeste 10 Noroeste 0 -- -- 52
2019-08-05 07:00:00 20.9 4 Oeste 10 Oeste 0 -- -- 48
2019-08-05 06:00:00 21.7 5 Noroeste 8 Noroeste 0 -- -- 43
2019-08-05 05:00:00 22.1 4 Noroeste 7 Noroeste 0 -- -- 42
2019-08-05 04:00:00 23.2 5 Noroeste 7 Noroeste 0 -- -- 39
2019-08-05 03:00:00 23.8 5 Noroeste 6 Noroeste 0 -- -- 39
2019-08-05 02:00:00 25.7 3 Noroeste 8 Noroeste 0 -- -- 37
2019-08-05 01:00:00 26.4 4 Noroeste 7 Oeste 0 -- -- 35
2019-08-05 00:00:00 27.8 0 Calma 11 Oeste 0 -- -- 32
2019-08-04 23:00:00 29.9 6 Sudoeste 25 Noroeste 0 -- -- 30
2019-08-04 22:00:00 31.5 9 Noroeste 20 Noroeste 0 -- -- 27
2019-08-04 21:00:00 34 9 Noroeste 21 Noroeste 0 -- -- 23
2019-08-04 20:00:00 35.8 6 Oeste 21 Oeste 0 -- -- 23
2019-08-04 19:00:00 36.5 11 Oeste 27 Oeste 0 -- -- 23
2019-08-04 18:00:00 36.6 13 Oeste 24 Oeste 0 -- -- 23
2019-08-04 17:00:00 36.7 9 Noroeste 30 Sudoeste 0 -- -- 24
2019-08-04 16:00:00 36.5 6 Oeste 20 Sudoeste 0 -- -- 23
2019-08-04 15:00:00 35.9 10 Sur 23 Sudoeste 0 -- -- 25
2019-08-04 14:00:00 34.9 9 Sur 26 Sur 0 -- -- 25
2019-08-04 13:00:00 33.5 11 Sudoeste 24 Sudoeste 0 -- -- 29
2019-08-04 12:00:00 31.6 6 Sudoeste 13 Sur 0 -- -- 30
2019-08-04 11:00:00 29.1 4 Norte 11 Oeste 0 -- -- 33
2019-08-04 10:00:00 26.2 3 Noroeste 7 Noroeste 0 -- -- 35
2019-08-04 09:00:00 21.3 3 Noroeste 6 Sudoeste 0 -- -- 41
2019-08-04 08:00:00 19.2 4 Noroeste 9 Sudoeste 0 -- -- 44
2019-08-04 07:00:00 20.1 0 Calma 7 Noroeste 0 -- -- 43
2019-08-04 06:00:00 20.6 0 Calma 4 Noroeste 0 -- -- 41
2019-08-04 05:00:00 21.8 0 Calma 6 Sudoeste 0 -- -- 40
2019-08-04 04:00:00 24 2 Noroeste 8 Noroeste 0 -- -- 37
2019-08-04 03:00:00 24.8 4 Noroeste 7 Noroeste 0 -- -- 37
2019-08-04 02:00:00 25.4 4 Noroeste 9 Noroeste 0 -- -- 37
2019-08-04 01:00:00 26.1 5 Noroeste 9 Noroeste 0 -- -- 36
2019-08-04 00:00:00 27.6 4 Oeste 14 Oeste 0 -- -- 32
2019-08-03 23:00:00 29.2 5 Noroeste 10 Oeste 0 -- -- 28
2019-08-03 22:00:00 31.8 6 Sudoeste 20 Oeste 0 -- -- 26
2019-08-03 21:00:00 34.7 7 Sudoeste 24 Sudoeste 0 -- -- 21
2019-08-03 20:00:00 36.5 8 Sudoeste 26 Sudoeste 0 -- -- 20
2019-08-03 19:00:00 37.3 8 Oeste 27 Sudoeste 0 -- -- 19
2019-08-03 18:00:00 38 9 Sudoeste 23 Oeste 0 -- -- 18
2019-08-03 17:00:00 38 8 Sudoeste 26 Sudoeste 0 -- -- 19
2019-08-03 16:00:00 37.7 16 Sudoeste 26 Sudoeste 0 -- -- 19
2019-08-03 15:00:00 36 8 Sudoeste 29 Sur 0 -- -- 21
2019-08-03 14:00:00 34.9 10 Sur 24 Oeste 0 -- -- 22
2019-08-03 13:00:00 34.1 5 Sudoeste 17 Este 0 -- -- 23
2019-08-03 12:00:00 32.3 3 Oeste 14 Oeste 0 -- -- 23
2019-08-03 11:00:00 29.9 3 Norte 5 Norte 0 -- -- 23
2019-08-03 10:00:00 26.3 3 Norte 5 Noroeste 0 -- -- 26
2019-08-03 09:00:00 21.6 4 Noroeste 8 Oeste 0 -- -- 33
2019-08-03 08:00:00 19 5 Noroeste 8 Noroeste 0 -- -- 37
2019-08-03 07:00:00 18.7 0 Calma 8 Oeste 0 -- -- 38
2019-08-03 06:00:00 19.8 2 Sudoeste 5 Oeste 0 -- -- 36
2019-08-03 05:00:00 21.1 3 Oeste 6 Noroeste 0 -- -- 34
2019-08-03 04:00:00 22.3 4 Sudoeste 8 Sudoeste 0 -- -- 33
2019-08-03 03:00:00 24.5 4 Oeste 8 Oeste 0 -- -- 30
2019-08-03 02:00:00 25.1 5 Noroeste 9 Noroeste 0 -- -- 29
2019-08-03 01:00:00 26.2 4 Noroeste 9 Noroeste 0 -- -- 27
2019-08-03 00:00:00 27.7 0 Calma 10 Oeste 0 -- -- 26
2019-08-02 23:00:00 29.1 4 Oeste 13 Oeste 0 -- -- 24
2019-08-02 22:00:00 31.9 4 Oeste 13 Noroeste 0 -- -- 21
2019-08-02 21:00:00 34.3 8 Noroeste 18 Norte 0 -- -- 19
2019-08-02 20:00:00 35.8 9 Noroeste 22 Noroeste 0 -- -- 18
2019-08-02 19:00:00 36.7 9 Noroeste 23 Noroeste 0 -- -- 18
2019-08-02 18:00:00 36.7 13 Noroeste 26 Noroeste 0 -- -- 19
2019-08-02 17:00:00 36.3 6 Noroeste 17 Noroeste 0 -- -- 20
2019-08-02 16:00:00 35.7 8 Noroeste 16 Noroeste 0 -- -- 21
2019-08-02 15:00:00 34.7 7 Noroeste 17 Norte 0 -- -- 22
2019-08-02 14:00:00 33.7 5 Oeste 19 Norte 0 -- -- 24
2019-08-02 13:00:00 32.2 5 Norte 15 Noroeste 0 -- -- 27
2019-08-02 12:00:00 31 4 Norte 12 Noroeste 0 -- -- 27
2019-08-02 11:00:00 28.8 5 Noroeste 11 Noroeste 0 -- -- 30
2019-08-02 10:00:00 25.5 5 Noroeste 9 Oeste 0 -- -- 34
2019-08-02 09:00:00 21.4 5 Noroeste 8 Oeste 0 -- -- 41
2019-08-02 08:00:00 18.8 0 Calma 6 Sudoeste 0 -- -- 45
2019-08-02 07:00:00 20.3 5 Noroeste 6 Noroeste 0 -- -- 42
2019-08-02 06:00:00 21.5 3 Noroeste 8 Noroeste 0 -- -- 39
2019-08-02 05:00:00 22.4 5 Noroeste 7 Noroeste 0 -- -- 37
2019-08-02 04:00:00 22.9 4 Noroeste 7 Noroeste 0 -- -- 35
2019-08-02 03:00:00 23.1 3 Noroeste 10 Oeste 0 -- -- 32
2019-08-02 02:00:00 24.9 5 Noroeste 7 Oeste 0 -- -- 30
2019-08-02 01:00:00 25.4 3 Oeste 9 Oeste 0 -- -- 29
2019-08-02 00:00:00 26.8 3 Noroeste 9 Oeste 0 -- -- 26
2019-08-01 23:00:00 28.9 4 Sudoeste 21 Norte 0 -- -- 26
2019-08-01 22:00:00 30.4 15 Noroeste 25 Noroeste 0 -- -- 27
2019-08-01 21:00:00 33.3 7 Oeste 22 Oeste 0 -- -- 22
2019-08-01 20:00:00 34.6 10 Oeste 24 Sudoeste 0 -- -- 20
2019-08-01 19:00:00 35.2 10 Noroeste 27 Oeste 0 -- -- 21
2019-08-01 18:00:00 35.3 8 Noroeste 26 Noroeste 0 -- -- 25
2019-08-01 17:00:00 34.9 9 Noroeste 27 Oeste 0 -- -- 27
2019-08-01 16:00:00 34.1 9 Noroeste 26 Noroeste 0 -- -- 29
2019-08-01 15:00:00 33.4 9 Noroeste 24 Noroeste 0 -- -- 30
2019-08-01 14:00:00 31.9 10 Noroeste 26 Oeste 0 -- -- 31
2019-08-01 13:00:00 31.1 5 Oeste 21 Noroeste 0 -- -- 32
2019-08-01 12:00:00 29.4 8 Noroeste 19 Noroeste 0 -- -- 33
2019-08-01 11:00:00 27.4 6 Noroeste 12 Noroeste 0 -- -- 40
2019-08-01 10:00:00 26.1 5 Sur 12 Oeste 0 -- -- 49
2019-08-01 09:00:00 23.8 4 Noroeste 9 Este 0 -- -- 61
2019-08-01 08:00:00 22.2 2 Sudeste 9 Este 0 -- -- 65
2019-08-01 07:00:00 22.7 5 Sudeste 9 Este 0 -- -- 64
2019-08-01 06:00:00 23.4 4 Este 10 Este 0 -- -- 60
2019-08-01 05:00:00 24.1 3 Oeste 9 Oeste 0 -- -- 53
2019-08-01 04:00:00 24.5 4 Noroeste 12 Oeste 0 -- -- 48
2019-08-01 03:00:00 26.1 4 Oeste 14 Sudoeste 0 -- -- 43
2019-08-01 02:00:00 27.1 6 Sudoeste 10 Sudoeste 0 -- -- 40
2019-08-01 01:00:00 27.7 4 Noroeste 12 Noroeste 0 -- -- 38
2019-08-01 00:00:00 28.9 6 Noroeste 10 Noroeste 0 -- -- 35
2019-07-31 23:00:00 29.6 3 Noroeste 12 Oeste 0 -- -- 33
2019-07-31 22:00:00 32.1 6 Sudoeste 15 Sudoeste 0 -- -- 30
2019-07-31 21:00:00 34.5 9 Sudoeste 21 Sudoeste 0 -- -- 26
2019-07-31 20:00:00 36.2 10 Sudoeste 27 Sudoeste 0 -- -- 25
2019-07-31 19:00:00 37 12 Sudoeste 29 Sudoeste 0 -- -- 23
2019-07-31 18:00:00 37.3 8 Sudoeste 30 Sur 0 -- -- 22
2019-07-31 17:00:00 37.7 10 Sudoeste 25 Sudoeste 0 -- -- 24
2019-07-31 16:00:00 36.2 8 Sur 23 Sudoeste 0 -- -- 27
2019-07-31 15:00:00 35 8 Sur 23 Sur 0 -- -- 28
2019-07-31 14:00:00 34 7 Sudeste 25 Sur 0 -- -- 28
2019-07-31 13:00:00 33 5 Sudeste 19 Sudoeste 0 -- -- 30
2019-07-31 12:00:00 30.7 5 Este 19 Este 0 -- -- 27
2019-07-31 11:00:00 28.7 5 Este 10 Este 0 -- -- 26
2019-07-31 10:00:00 24.7 4 Sudeste 8 Sudoeste 0 -- -- 26
2019-07-31 09:00:00 20.3 2 Oeste 8 Noroeste 0 -- -- 37
2019-07-31 08:00:00 17.2 4 Noroeste 7 Sudoeste 0 -- -- 31
2019-07-31 07:00:00 18.3 2 Noroeste 8 Sudoeste 0 -- -- 30
2019-07-31 06:00:00 18.4 4 Noroeste 6 Noroeste 0 -- -- 29
2019-07-31 05:00:00 19.9 2 Sudoeste 6 Sudoeste 0 -- -- 30
2019-07-31 04:00:00 21.7 2 Oeste 8 Noroeste 0 -- -- 27
2019-07-31 03:00:00 22 4 Oeste 10 Oeste 0 -- -- 23
2019-07-31 02:00:00 22.9 6 Oeste 10 Oeste 0 -- -- 22
2019-07-31 01:00:00 24 7 Noroeste 11 Noroeste 0 -- -- 23
2019-07-31 00:00:00 25.8 6 Noroeste 10 Noroeste 0 -- -- 22
2019-07-30 23:00:00 27.2 3 Oeste 8 Oeste 0 -- -- 23
2019-07-30 22:00:00 29.6 5 Oeste 16 Noroeste 0 -- -- 22
2019-07-30 21:00:00 32.5 8 Oeste 19 Noroeste 0 -- -- 22
2019-07-30 20:00:00 33.9 8 Noroeste 17 Noroeste 0 -- -- 22
2019-07-30 19:00:00 34.5 5 Oeste 21 Oeste 0 -- -- 22
2019-07-30 18:00:00 34.5 5 Oeste 22 Noroeste 0 -- -- 22
2019-07-30 17:00:00 34.1 7 Oeste 18 Noroeste 0 -- -- 23
2019-07-30 16:00:00 33.7 8 Sudoeste 20 Oeste 0 -- -- 23
2019-07-30 15:00:00 32.4 6 Sur 19 Norte 0 -- -- 25
2019-07-30 14:00:00 30.6 6 Este 15 Oeste 0 -- -- 28
2019-07-30 13:00:00 29.9 6 Sudoeste 13 Sur 0 -- -- 29
2019-07-30 12:00:00 28 7 Sur 21 Sur 0 -- -- 30
2019-07-30 11:00:00 25.6 6 Sudeste 17 Sur 0 -- -- 35
2019-07-30 10:00:00 22.9 3 Sudoeste 8 Sudoeste 0 -- -- 43
2019-07-30 09:00:00 19.4 3 Noroeste 10 Oeste 0 -- -- 49
2019-07-30 08:00:00 17.7 6 Oeste 12 Oeste 0 -- -- 54
2019-07-30 07:00:00 17.8 5 Noroeste 10 Noroeste 0 -- -- 52
2019-07-30 06:00:00 18.4 4 Noroeste 10 Noroeste 0 -- -- 49
2019-07-30 05:00:00 19.3 5 Noroeste 9 Oeste 0 -- -- 47
2019-07-30 04:00:00 20.5 5 Noroeste 9 Noroeste 0 -- -- 46
2019-07-30 03:00:00 21.3 4 Noroeste 9 Oeste 0 -- -- 47
2019-07-30 02:00:00 21.9 3 Noroeste 11 Noroeste 0 -- -- 46
2019-07-30 01:00:00 23.1 5 Oeste 10 Noroeste 0 -- -- 44
2019-07-30 00:00:00 25.2 5 Sudoeste 13 Oeste 0 -- -- 41
2019-07-29 23:00:00 26.3 8 Noroeste 21 Noroeste 0 -- -- 37
2019-07-29 22:00:00 27.8 11 Noroeste 28 Noroeste 0 -- -- 32
2019-07-29 21:00:00 29.9 17 Noroeste 28 Noroeste 0 -- -- 27
2019-07-29 20:00:00 32.3 9 Oeste 25 Oeste 0 -- -- 23
2019-07-29 19:00:00 33.3 9 Oeste 26 Oeste 0 -- -- 20
2019-07-29 18:00:00 33.9 13 Sudoeste 22 Oeste 0 -- -- 19
2019-07-29 17:00:00 33.2 9 Oeste 25 Oeste 0 -- -- 17
2019-07-29 16:00:00 32.7 10 Oeste 31 Oeste 0 -- -- 20
2019-07-29 15:00:00 32.1 12 Oeste 27 Oeste 0 -- -- 26
2019-07-29 14:00:00 31.2 12 Noroeste 26 Oeste 0 -- -- 31
2019-07-29 13:00:00 30.2 9 Oeste 23 Oeste 0 -- -- 34
2019-07-29 12:00:00 28.6 7 Noroeste 20 Noroeste 0 -- -- 37
2019-07-29 11:00:00 26.6 8 Noroeste 15 Noroeste 0 -- -- 41
2019-07-29 10:00:00 24.4 5 Noroeste 13 Noroeste 0 -- -- 48
2019-07-29 09:00:00 21.5 6 Noroeste 11 Noroeste 0 -- -- 52
2019-07-29 08:00:00 19.7 6 Noroeste 10 Noroeste 0 -- -- 56
2019-07-29 07:00:00 20 3 Noroeste 7 Noroeste 0 -- -- 54
2019-07-29 06:00:00 19.9 5 Noroeste 9 Oeste 0 -- -- 54
2019-07-29 05:00:00 20.6 3 Noroeste 6 Sudoeste 0 -- -- 52
2019-07-29 04:00:00 21.9 2 Sudoeste 5 Noroeste 0 -- -- 50
2019-07-29 03:00:00 22.5 4 Noroeste 8 Noroeste 0 -- -- 47
2019-07-29 02:00:00 23.6 3 Oeste 7 Oeste 0 -- -- 45
2019-07-29 01:00:00 24.5 4 Sudoeste 7 Oeste 0 -- -- 43
2019-07-29 00:00:00 25.7 4 Sudoeste 14 Oeste 0 -- -- 40
2019-07-28 23:00:00 26.8 5 Sudoeste 15 Noroeste 0 -- -- 38
2019-07-28 22:00:00 28.2 6 Noroeste 15 Oeste 0 -- -- 36
2019-07-28 21:00:00 30.2 8 Noroeste 15 Noroeste 0 -- -- 33
2019-07-28 20:00:00 31 7 Noroeste 21 Norte 0 -- -- 33
2019-07-28 19:00:00 31.9 9 Oeste 18 Noroeste 0 -- -- 31
2019-07-28 18:00:00 32.2 9 Sudoeste 20 Sudoeste 0 -- -- 31
2019-07-28 17:00:00 30.5 4 Norte 17 Sudoeste 0 -- -- 34
2019-07-28 16:00:00 30.8 8 Oeste 18 Sudoeste 0 -- -- 35
2019-07-28 15:00:00 28.2 5 Nordeste 13 Noroeste 0 -- -- 40
2019-07-28 14:00:00 26.6 6 Noroeste 15 Noroeste 0 -- -- 44
2019-07-28 13:00:00 26.6 6 Norte 17 Noroeste 0 -- -- 46
2019-07-28 12:00:00 25.5 5 Noroeste 14 Sur 0 -- -- 54
2019-07-28 11:00:00 24.7 4 Sudeste 16 Sudoeste 0 -- -- 57
2019-07-28 10:00:00 22 6 Sur 11 Sur 0 -- -- 65
2019-07-28 09:00:00 19.7 6 Oeste 9 Oeste 0 -- -- 72
2019-07-28 08:00:00 17.4 4 Noroeste 9 Sudoeste 0 -- -- 82
2019-07-28 07:00:00 17.4 5 Noroeste 8 Noroeste 0 -- -- 82
2019-07-28 06:00:00 17.7 2 Noroeste 6 Sur 0 -- -- 81
2019-07-28 05:00:00 18 4 Sudoeste 9 Oeste 0 -- -- 78
2019-07-28 04:00:00 19 4 Noroeste 9 Noroeste 0 -- -- 77
2019-07-28 03:00:00 19 3 Noroeste 8 Noroeste 0 -- -- 76
2019-07-28 02:00:00 19.3 3 Noroeste 10 Noroeste 0 -- -- 73
2019-07-28 01:00:00 20.5 5 Sudoeste 12 Sudoeste 0 -- -- 66
2019-07-28 00:00:00 21.1 4 Oeste 12 Sudoeste 0 -- -- 63
2019-07-27 23:00:00 22 5 Sudoeste 11 Oeste 0 -- -- 59
2019-07-26 12:00:00 -- -- -- -- -- -- -- -- --
2019-07-26 11:00:00 26.6 11 Sudoeste 20 Sudoeste 0 -- -- 53
2019-07-26 10:00:00 24.1 5 Noroeste 15 Noroeste 0 -- -- 63
2019-07-26 09:00:00 22.9 6 Noroeste 17 Oeste 0 -- -- 69
2019-07-26 08:00:00 22 4 Oeste 13 Noroeste 0 -- -- 71
2019-07-26 07:00:00 23 6 Oeste 13 Sudoeste 0 -- -- 66
2019-07-26 06:00:00 24 5 Oeste 17 Oeste 0 -- -- 57
2019-07-26 05:00:00 24.8 4 Oeste 13 Oeste 0 -- -- 48
2019-07-26 04:00:00 25 5 Noroeste 9 Noroeste 0 -- -- 44
2019-07-26 03:00:00 25.5 3 Oeste 9 Sudoeste 0 -- -- 43
2019-07-26 02:00:00 26.3 2 Noroeste 6 Noroeste 0 -- -- 43
2019-07-26 01:00:00 26.3 3 Noroeste 8 Noroeste 0 -- -- 42
2019-07-26 00:00:00 28.1 3 Noroeste 14 Oeste 0 -- -- 38
2019-07-25 23:00:00 29.8 5 Oeste 19 Oeste 0 -- -- 35
2019-07-25 22:00:00 31.9 8 Sudoeste 22 Sudoeste 0 -- -- 23
2019-07-25 21:00:00 34.5 12 Sudoeste 29 Sudoeste 0 -- -- 20
2019-07-25 20:00:00 35.8 12 Sudoeste 28 Sudoeste 0 -- -- 20
2019-07-25 19:00:00 37 15 Sudoeste 31 Sudoeste 0 -- -- 22
2019-07-25 18:00:00 37.8 12 Sudoeste 29 Sudoeste 0 -- -- 20
2019-07-25 17:00:00 37.6 9 Sudoeste 31 Sudoeste 0 -- -- 23
2019-07-25 16:00:00 36.5 8 Sudeste 23 Sudoeste 0 -- -- 23
2019-07-25 15:00:00 36.5 11 Sudoeste 32 Sudoeste 0 -- -- 25
2019-07-25 14:00:00 34.9 9 Sudoeste 26 Sudoeste 0 -- -- 29
2019-07-25 13:00:00 33.8 7 Sur 22 Sudoeste 0 -- -- 31
2019-07-25 12:00:00 32.6 6 Sur 18 Sudoeste 0 -- -- 32
2019-07-25 11:00:00 30.9 6 Sudoeste 17 Sudoeste 0 -- -- 34
2019-07-25 10:00:00 28.3 0 Calma 6 Sudoeste 0 -- -- 40
2019-07-25 09:00:00 25.4 3 Sudoeste 9 Sudoeste 0 -- -- 47
2019-07-25 08:00:00 23.5 4 Noroeste 6 Noroeste 0 -- -- 52
2019-07-25 07:00:00 24.6 2 Noroeste 7 Noroeste 0 -- -- 48
2019-07-25 06:00:00 25.1 3 Noroeste 9 Oeste 0 -- -- 49
2019-07-25 05:00:00 25.7 4 Noroeste 9 Noroeste 0 -- -- 46
2019-07-25 04:00:00 26.9 5 Sudoeste 21 Sudoeste 0 -- -- 42
2019-07-25 03:00:00 28.3 9 Sudoeste 24 Oeste 0 -- -- 40
2019-07-25 02:00:00 29 3 Oeste 10 Noroeste 0 -- -- 35
2019-07-25 01:00:00 29.3 4 Noroeste 13 Noroeste 0 -- -- 33
2019-07-25 00:00:00 29.6 4 Noroeste 9 Noroeste 0 -- -- 30
2019-07-24 23:00:00 30.4 4 Oeste 11 Sudoeste 0 -- -- 28
2019-07-24 22:00:00 33.1 6 Sudoeste 19 Sudoeste 0 -- -- 24
2019-07-24 21:00:00 35.7 11 Sudoeste 22 Sudoeste 0 -- -- 23
2019-07-24 20:00:00 37.6 12 Sudoeste 27 Sudoeste 0 -- -- 23
2019-07-24 19:00:00 38.3 14 Sudoeste 32 Sudoeste 0 -- -- 22
2019-07-24 18:00:00 38.8 11 Sudoeste 33 Sudoeste 0 -- -- 20
2019-07-24 17:00:00 38.7 13 Sudoeste 32 Sudeste 0 -- -- 19
2019-07-24 16:00:00 37.8 12 Sur 33 Sur 0 -- -- 22
2019-07-24 15:00:00 37.5 13 Sudoeste 29 Sudoeste 0 -- -- 24
2019-07-24 14:00:00 36.7 11 Sudoeste 23 Sur 0 -- -- 24
2019-07-24 13:00:00 35.4 8 Sur 19 Sudeste 0 -- -- 26
2019-07-24 12:00:00 33.6 8 Sur 21 Sur 0 -- -- 27
2019-07-24 11:00:00 31.8 6 Sudeste 18 Sudeste 0 -- -- 32
2019-07-24 10:00:00 29.2 5 Sudeste 12 Sudeste 0 -- -- 47
2019-07-24 09:00:00 25.8 3 Sudoeste 7 Sudeste 0 -- -- 50
2019-07-24 08:00:00 24.2 4 Sudeste 9 Este 0 -- -- 53
2019-07-24 07:00:00 23.8 4 Sudeste 14 Este 0 -- -- 54
2019-07-24 06:00:00 24.5 4 Sudeste 13 Este 0 -- -- 53
2019-07-24 05:00:00 25 9 Este 15 Este 0 -- -- 49
2019-07-24 04:00:00 25.1 8 Sudeste 15 Este 0 -- -- 49
2019-07-24 03:00:00 25.9 7 Este 16 Este 0 -- -- 47
2019-07-24 02:00:00 26.4 6 Sudeste 33 Nordeste 0 -- -- 46
2019-07-24 01:00:00 26.6 14 Nordeste 36 Norte 0 -- -- 46
2019-07-24 00:00:00 30.3 12 Norte 27 Norte 0 -- -- 37
2019-07-23 23:00:00 32.1 9 Sudoeste 23 Sudeste 0 -- -- 34
2019-07-23 22:00:00 33.9 6 Oeste 26 Sudoeste 0 -- -- 34
2019-07-23 21:00:00 35.8 13 Sudoeste 27 Sur 0 -- -- 28
2019-07-23 20:00:00 36.8 15 Sudoeste 26 Sudoeste 0 -- -- 25
2019-07-23 19:00:00 37.4 10 Sur 27 Sur 0 -- -- 25
2019-07-23 18:00:00 35.6 11 Sudoeste 31 Sudoeste 0 -- -- 35
2019-07-23 17:00:00 39.2 15 Sur 32 Sur 0 -- -- 21
2019-07-23 16:00:00 39.1 10 Sur 27 Sur 0 -- -- 21
2019-07-23 15:00:00 38.4 14 Sudoeste 31 Sudoeste 0 -- -- 20
2019-07-23 14:00:00 37.4 10 Sur 23 Sur 0 -- -- 21
2019-07-23 13:00:00 35.7 8 Sur 22 Este 0 -- -- 21
2019-07-23 12:00:00 33.6 8 Este 24 Este 0 -- -- 23
2019-07-23 11:00:00 32.3 6 Sudeste 15 Este 0 -- -- 25
2019-07-23 10:00:00 30 8 Este 18 Este 0 -- -- 31
2019-07-23 09:00:00 27.1 9 Este 15 Este 0 -- -- 40
2019-07-23 08:00:00 25.2 6 Sudeste 12 Este 0 -- -- 44
2019-07-23 07:00:00 25.2 8 Sudoeste 15 Este 0 -- -- 45
2019-07-23 06:00:00 26.3 7 Este 14 Este 0 -- -- 41
2019-07-23 05:00:00 27 3 Sudoeste 7 Sudoeste 0 -- -- 43
2019-07-23 04:00:00 28.4 2 Oeste 9 Sur 0 -- -- 40
2019-07-23 03:00:00 30 4 Sudoeste 17 Sudeste 0 -- -- 35
2019-07-23 02:00:00 31.2 10 Sudeste 22 Sur 0 -- -- 32
2019-07-23 01:00:00 32.3 10 Sur 25 Sur 0 -- -- 30
2019-07-23 00:00:00 32.9 11 Sudeste 21 Este 0 -- -- 30
2019-07-22 23:00:00 34.1 7 Sudeste 18 Sudeste 0 -- -- 28
2019-07-22 22:00:00 35.1 9 Sur 18 Sur 0 -- -- 27
2019-07-22 21:00:00 37.1 6 Sur 19 Sur 0 -- -- 25
2019-07-22 20:00:00 38.5 9 Sur 27 Sur 0 -- -- 22
2019-07-22 19:00:00 39 13 Sudoeste 25 Sur 0 -- -- 21
2019-07-22 18:00:00 39.8 8 Sudeste 26 Sur 0 -- -- 20
2019-07-22 17:00:00 39.3 11 Sudeste 27 Sudeste 0 -- -- 20
2019-07-22 16:00:00 38 9 Este 26 Nordeste 0 -- -- 23
2019-07-22 15:00:00 36.9 9 Sudeste 27 Este 0 -- -- 25
2019-07-22 14:00:00 35.9 7 Sudeste 25 Este 0 -- -- 28
2019-07-22 13:00:00 34.2 7 Sudeste 26 Este 0 -- -- 30
2019-07-22 12:00:00 32.6 10 Este 21 Este 0 -- -- 32
2019-07-22 11:00:00 31 7 Este 22 Este 0 -- -- 39
2019-07-22 10:00:00 29.5 7 Este 18 Este 0 -- -- 44
2019-07-22 09:00:00 27.7 7 Este 17 Este 0 -- -- 52
2019-07-22 08:00:00 26.8 8 Este 13 Este 0 -- -- 53
2019-07-22 07:00:00 27.1 3 Sur 13 Este 0 -- -- 52
2019-07-22 06:00:00 27.4 5 Este 15 Sur 0 -- -- 52
2019-07-22 05:00:00 27.9 11 Sur 23 Sur 0 -- -- 52
2019-07-22 04:00:00 28.4 6 Sudeste 23 Sudeste 0 -- -- 49
2019-07-22 03:00:00 29.4 7 Sudeste 23 Sudeste 0 -- -- 45
2019-07-22 02:00:00 30.6 9 Sudeste 25 Sudeste 0 -- -- 39
2019-07-22 01:00:00 30.9 6 Sudeste 14 Este 0 -- -- 34
2019-07-22 00:00:00 32.3 10 Este 19 Este 0 -- -- 31
2019-07-21 23:00:00 32.7 5 Sudoeste 9 Sudoeste 0 -- -- 32
2019-07-21 22:00:00 34.6 3 Noroeste 10 Noroeste 0 -- -- 27
2019-07-21 21:00:00 36.4 6 Noroeste 16 Noroeste 0 -- -- 26
2019-07-21 20:00:00 37.4 8 Noroeste 32 Este 0 -- -- 25
2019-07-21 19:00:00 37.7 21 Este 40 Este 0 -- -- 27
2019-07-21 18:00:00 39.5 5 Sudoeste 15 Este 0 -- -- 23
2019-07-21 17:00:00 38.1 5 Este 20 Norte 0 -- -- 24
2019-07-21 16:00:00 38.1 6 Noroeste 23 Sudoeste 0 -- -- 24
2019-07-21 15:00:00 37.7 4 Norte 21 Sudoeste 0 -- -- 24
2019-07-21 14:00:00 36.8 7 Norte 18 Noroeste 0 -- -- 25
2019-07-21 13:00:00 35.8 5 Oeste 15 Sur 0 -- -- 26
2019-07-21 12:00:00 33.9 4 Noroeste 10 Norte 0 -- -- 28
2019-07-21 11:00:00 31.8 4 Sudoeste 8 Sudoeste 0 -- -- 32
2019-07-21 10:00:00 28.5 3 Noroeste 6 Noroeste 0 -- -- 38
2019-07-21 09:00:00 25.1 3 Sudoeste 8 Sudoeste 0 -- -- 41
2019-07-21 08:00:00 23.7 2 Sudoeste 6 Noroeste 0 -- -- 42
2019-07-21 07:00:00 23.9 0 Calma 8 Noroeste 0 -- -- 41
2019-07-21 06:00:00 24.9 3 Noroeste 6 Noroeste 0 -- -- 41
2019-07-21 05:00:00 25.7 2 Oeste 10 Oeste 0 -- -- 38
2019-07-21 04:00:00 26 5 Noroeste 8 Noroeste 0 -- -- 37
2019-07-21 03:00:00 27.3 4 Noroeste 11 Sudeste 0 -- -- 34
2019-07-21 02:00:00 28.2 4 Noroeste 8 Noroeste 0 -- -- 33
2019-07-21 01:00:00 29.8 3 Noroeste 6 Noroeste 0 -- -- 32
2019-07-21 00:00:00 30.9 3 Oeste 12 Sudoeste 0 -- -- 28